Weather at Campillos Airfield

Public forecast

Using degrees Celsius for public forecast. Weather courtesy of forecast.io.

Closest aviation weather report (METAR) to Campillos Airfield

Closest report is Teruel Airport, 31.3 nm (58.0 km) NNE. Retrieved 2021/04/17 17:00 UTC (13 minutes ago):

LETL 171700Z AUTO 35015KT 330V030 CAVOK 11/M04 Q1016

Closest aviation forecast (TAF) to Campillos Airfield

Closest forecast is Teruel Airport, 31.3 nm (58.0 km) NNE. Retrieved 2021/04/17 12:00 UTC (5 hours ago):

TAF LETL 171100Z 1712/1812 35015KT 9999 FEW040 TX13/1714Z TN01/1806Z TEMPO 1712/1718 35018G28KT